Time;durP1;ratioP1;P1;durP2;ratioP2;P2;SDS_P1;SDS_P2;PMS_P1;PMS_P2;Temp;Humidity;BMP_temperature;BMP_pressure;BME280_temperature;BME280_humidity;BME280_pressure;Samples;Min_cycle;Max_cycle;Signal;HPM_P1;HPM_P2
2020/12/13 00:00:35;;;;;;;42.80;19.23;;;5.30;72.00;;;;;;5053266;28;20360;-70
2020/12/13 00:03:01;;;;;;;47.35;20.17;;;5.20;72.10;;;;;;5054047;28;20033;-70
2020/12/13 00:05:27;;;;;;;47.35;20.27;;;5.20;72.20;;;;;;5054012;28;20021;-70
2020/12/13 00:07:54;;;;;;;51.95;20.65;;;5.20;72.30;;;;;;5053664;28;20029;-69
2020/12/13 00:10:22;;;;;;;50.55;20.00;;;5.20;72.20;;;;;;5054175;28;20080;-69
2020/12/13 00:12:48;;;;;;;45.63;20.88;;;5.20;72.20;;;;;;5053680;28;20453;-70
2020/12/13 00:15:14;;;;;;;48.70;21.15;;;5.20;72.20;;;;;;5053557;28;20025;-69
2020/12/13 00:17:40;;;;;;;49.58;21.00;;;5.20;72.40;;;;;;5053580;28;20326;-69
2020/12/13 00:20:07;;;;;;;55.90;22.00;;;5.20;72.30;;;;;;5053457;28;20032;-69
2020/12/13 00:22:33;;;;;;;49.38;21.65;;;5.20;72.40;;;;;;5053232;28;20025;-70
2020/12/13 00:24:59;;;;;;;48.78;21.30;;;5.20;72.30;;;;;;5053515;28;20021;-70
2020/12/13 00:27:25;;;;;;;53.63;22.58;;;5.20;72.40;;;;;;5053905;28;20021;-70
2020/12/13 00:29:50;;;;;;;51.72;22.80;;;5.20;72.40;;;;;;5053147;28;20024;-70
2020/12/13 00:32:16;;;;;;;54.90;22.15;;;5.20;72.40;;;;;;5053387;28;20025;-69
2020/12/13 00:34:42;;;;;;;51.83;22.33;;;5.20;72.40;;;;;;5053581;28;20389;-70
2020/12/13 00:37:07;;;;;;;51.75;21.83;;;5.20;72.60;;;;;;5053120;28;20099;-69
2020/12/13 00:39:37;;;;;;;63.78;24.38;;;5.20;72.50;;;;;;5053239;28;20466;-71
2020/12/13 00:42:03;;;;;;;50.55;21.45;;;5.20;72.40;;;;;;5053291;28;20028;-70
2020/12/13 00:44:29;;;;;;;52.72;23.15;;;5.20;72.50;;;;;;5055715;28;20028;-68
2020/12/13 00:46:55;;;;;;;52.70;23.15;;;5.20;72.60;;;;;;5060386;28;20024;-70
2020/12/13 00:49:20;;;;;;;54.75;22.63;;;5.20;72.60;;;;;;5059839;28;20029;-69
2020/12/13 00:51:46;;;;;;;59.10;23.35;;;5.20;72.50;;;;;;5059858;28;20338;-70
2020/12/13 00:54:12;;;;;;;51.95;23.10;;;5.20;72.40;;;;;;5059298;28;20028;-70
2020/12/13 00:56:38;;;;;;;50.13;22.95;;;5.20;72.50;;;;;;5059614;28;20021;-69
2020/12/13 00:59:04;;;;;;;48.63;23.02;;;5.20;72.60;;;;;;5059649;28;20099;-69
2020/12/13 01:01:30;;;;;;;49.45;22.65;;;5.20;72.50;;;;;;5059796;28;20129;-70
2020/12/13 01:03:56;;;;;;;48.80;21.98;;;5.20;72.40;;;;;;5059680;28;20064;-69
2020/12/13 01:06:23;;;;;;;54.03;23.48;;;5.20;72.60;;;;;;5059974;28;20046;-69
2020/12/13 01:08:50;;;;;;;58.33;22.65;;;5.20;72.70;;;;;;5059472;28;20487;-70
2020/12/13 01:11:27;;;;;;;54.08;22.77;;;5.20;72.60;;;;;;5058375;28;20029;-69
2020/12/13 01:13:53;;;;;;;46.95;22.75;;;5.20;72.50;;;;;;5059649;28;20078;-69
2020/12/13 01:16:21;;;;;;;56.80;23.10;;;5.20;72.50;;;;;;5059571;28;20234;-69
2020/12/13 01:18:47;;;;;;;50.03;22.52;;;5.30;72.70;;;;;;5059719;28;20017;-69
2020/12/13 01:21:20;;;;;;;49.72;24.63;;;5.30;72.60;;;;;;5059596;28;20528;-70
2020/12/13 01:23:46;;;;;;;54.50;24.45;;;5.30;72.50;;;;;;5041881;28;20350;-68
2020/12/13 01:26:14;;;;;;;55.70;24.58;;;5.20;72.50;;;;;;5059527;28;20021;-69
2020/12/13 01:28:40;;;;;;;54.97;23.17;;;5.20;72.40;;;;;;5058209;28;20108;-69
2020/12/13 01:31:06;;;;;;;55.80;24.23;;;5.20;72.40;;;;;;5059516;28;20033;-70
2020/12/13 01:33:32;;;;;;;53.53;24.77;;;5.20;72.60;;;;;;5059475;28;20032;-68
2020/12/13 01:35:59;;;;;;;55.42;22.63;;;5.20;72.60;;;;;;5059964;28;20024;-68
2020/12/13 01:38:25;;;;;;;51.20;22.85;;;5.20;72.80;;;;;;5059232;28;20428;-69
2020/12/13 01:40:56;;;;;;;52.20;23.38;;;5.20;72.70;;;;;;5059355;28;20021;-70
2020/12/13 01:43:21;;;;;;;51.03;24.38;;;5.20;72.80;;;;;;5059492;28;20024;-70
2020/12/13 01:45:47;;;;;;;53.53;24.20;;;5.20;72.70;;;;;;5059128;28;20036;-70
2020/12/13 01:48:13;;;;;;;57.30;25.35;;;5.20;72.80;;;;;;5059363;28;20112;-70
2020/12/13 01:53:44;;;;;;;63.25;25.05;;;5.20;72.90;;;;;;5077072;28;20111;-70
2020/12/13 01:56:11;;;;;;;60.22;25.35;;;5.20;72.70;;;;;;5074689;28;20341;-70
2020/12/13 01:58:38;;;;;;;66.97;26.90;;;5.20;72.90;;;;;;5064695;28;20036;-70
2020/12/13 02:01:07;;;;;;;71.43;28.63;;;5.10;72.80;;;;;;5056080;28;20453;-70
2020/12/13 02:03:42;;;;;;;69.35;28.77;;;5.20;73.00;;;;;;5056100;28;20036;-70
2020/12/13 02:06:16;;;;;;;75.88;30.38;;;5.10;72.90;;;;;;5056029;28;20104;-69
2020/12/13 02:08:42;;;;;;;77.20;31.40;;;5.20;73.00;;;;;;5056013;28;20067;-70
2020/12/13 02:11:10;;;;;;;76.32;30.02;;;5.20;73.20;;;;;;5055922;28;20590;-69
2020/12/13 02:13:37;;;;;;;83.45;32.47;;;5.20;73.20;;;;;;5056160;28;20020;-69
2020/12/13 02:16:04;;;;;;;74.53;31.95;;;5.20;73.20;;;;;;5055771;28;20017;-70
2020/12/13 02:18:29;;;;;;;79.03;32.20;;;5.20;73.20;;;;;;5055996;28;20025;-70
2020/12/13 02:20:56;;;;;;;78.97;31.42;;;5.20;73.10;;;;;;5055520;28;20028;-69
2020/12/13 02:23:22;;;;;;;82.93;30.92;;;5.20;73.20;;;;;;5055950;28;20108;-70
2020/12/13 02:25:49;;;;;;;79.78;31.67;;;5.20;73.20;;;;;;5055848;28;20172;-71
2020/12/13 02:28:15;;;;;;;72.57;29.83;;;5.20;73.30;;;;;;5055477;28;20388;-70
2020/12/13 02:30:40;;;;;;;82.05;31.35;;;5.20;73.20;;;;;;5055462;28;20032;-71
2020/12/13 02:33:07;;;;;;;70.55;28.20;;;5.20;73.80;;;;;;5053884;28;20060;-69
2020/12/13 02:35:33;;;;;;;73.32;28.90;;;5.20;73.20;;;;;;5055221;28;20349;-70
2020/12/13 02:37:58;;;;;;;69.00;28.92;;;5.20;73.00;;;;;;5055425;28;20078;-69
2020/12/13 02:40:24;;;;;;;78.28;29.05;;;5.20;73.00;;;;;;5055303;28;20029;-69
2020/12/13 02:42:50;;;;;;;68.07;27.27;;;5.20;73.20;;;;;;5055366;28;20024;-70
2020/12/13 02:45:16;;;;;;;65.55;26.30;;;5.20;73.20;;;;;;5054952;28;20025;-70
2020/12/13 02:47:41;;;;;;;63.60;25.95;;;5.20;73.30;;;;;;5055482;28;20028;-70
2020/12/13 02:50:07;;;;;;;53.67;24.42;;;5.30;73.20;;;;;;5055198;28;20055;-70
2020/12/13 02:52:33;;;;;;;60.20;25.00;;;5.20;73.20;;;;;;5053852;28;20021;-70
2020/12/13 02:54:59;;;;;;;57.30;24.45;;;5.30;73.10;;;;;;5054748;28;20043;-70
2020/12/13 02:57:24;;;;;;;60.60;25.65;;;5.20;73.20;;;;;;5054654;28;20415;-69
2020/12/13 02:59:50;;;;;;;56.95;23.95;;;5.30;73.30;;;;;;5055188;28;20023;-69
2020/12/13 03:02:16;;;;;;;57.97;23.05;;;5.30;73.30;;;;;;5054384;28;20067;-69
2020/12/13 03:04:41;;;;;;;51.60;23.02;;;5.30;73.30;;;;;;5054618;28;20028;-69
2020/12/13 03:07:10;;;;;;;51.78;22.45;;;5.30;73.30;;;;;;5054255;28;20023;-71
2020/12/13 03:09:37;;;;;;;53.13;22.55;;;5.30;73.10;;;;;;5055372;28;20425;-69
2020/12/13 03:12:04;;;;;;;52.17;22.73;;;5.30;73.20;;;;;;5054695;28;20048;-70
2020/12/13 03:14:29;;;;;;;45.55;22.23;;;5.30;73.20;;;;;;5054941;28;20020;-69
2020/12/13 03:16:55;;;;;;;49.30;22.70;;;5.30;73.20;;;;;;5054616;28;20453;-69
2020/12/13 03:19:21;;;;;;;57.65;25.00;;;5.40;73.30;;;;;;5054871;28;20078;-69
2020/12/13 03:21:47;;;;;;;49.50;21.92;;;5.40;73.40;;;;;;5054782;28;20075;-69
2020/12/13 03:24:12;;;;;;;47.00;20.23;;;5.40;73.30;;;;;;5054462;28;20033;-69
2020/12/13 03:26:38;;;;;;;48.47;20.40;;;5.40;73.00;;;;;;5054385;28;20013;-69
2020/12/13 03:29:04;;;;;;;45.35;21.45;;;5.40;73.00;;;;;;5054600;28;20106;-69
2020/12/13 03:31:30;;;;;;;44.30;20.92;;;5.40;73.00;;;;;;5054112;28;20425;-68
2020/12/13 03:33:55;;;;;;;54.42;20.92;;;5.40;73.00;;;;;;5053255;28;20119;-70
2020/12/13 03:36:21;;;;;;;44.90;20.77;;;5.40;73.10;;;;;;5054108;28;20025;-69
2020/12/13 03:38:47;;;;;;;45.60;20.67;;;5.40;73.10;;;;;;5054367;28;20036;-69
2020/12/13 03:41:13;;;;;;;50.33;20.75;;;5.40;73.30;;;;;;5054204;28;20502;-69
2020/12/13 03:43:38;;;;;;;45.67;19.05;;;5.40;73.20;;;;;;5054007;28;20029;-70
2020/12/13 03:46:04;;;;;;;51.00;20.13;;;5.40;73.20;;;;;;5053928;28;20099;-70
2020/12/13 03:48:30;;;;;;;46.72;21.20;;;5.40;73.10;;;;;;5053866;28;20025;-69
2020/12/13 03:50:55;;;;;;;41.40;19.38;;;5.40;73.30;;;;;;5053848;28;20516;-69
2020/12/13 03:53:21;;;;;;;43.40;20.90;;;5.40;73.10;;;;;;5053842;28;20453;-69
2020/12/13 03:55:47;;;;;;;46.70;19.55;;;5.40;73.30;;;;;;5053750;28;20021;-70
2020/12/13 03:58:13;;;;;;;46.30;18.73;;;5.40;73.40;;;;;;5053707;28;20044;-69
2020/12/13 04:00:39;;;;;;;40.60;19.88;;;5.50;73.50;;;;;;5053636;28;20115;-70
2020/12/13 04:03:05;;;;;;;47.00;19.20;;;5.50;73.40;;;;;;5053690;28;20086;-70
2020/12/13 04:05:32;;;;;;;47.38;19.83;;;5.50;73.10;;;;;;5053912;28;20055;-70
2020/12/13 04:07:57;;;;;;;46.00;20.17;;;5.50;73.10;;;;;;5053602;28;20052;-69
2020/12/13 04:10:25;;;;;;;46.08;19.52;;;5.50;73.00;;;;;;5053932;28;20126;-69
2020/12/13 04:12:51;;;;;;;39.15;19.20;;;5.50;73.00;;;;;;5054114;28;20040;-70
2020/12/13 04:15:17;;;;;;;43.47;19.77;;;5.50;72.90;;;;;;5053485;28;20032;-70
2020/12/13 04:17:44;;;;;;;54.42;20.20;;;5.40;72.90;;;;;;5053153;28;20056;-68
2020/12/13 04:20:10;;;;;;;44.80;20.23;;;5.40;73.00;;;;;;5052783;28;20025;-69
2020/12/13 04:22:36;;;;;;;46.97;19.80;;;5.40;73.00;;;;;;5053106;28;20143;-70
2020/12/13 04:25:03;;;;;;;52.13;21.65;;;5.40;73.10;;;;;;5053916;28;20055;-69
2020/12/13 04:27:29;;;;;;;46.83;22.45;;;5.40;73.10;;;;;;5053371;28;20029;-70
2020/12/13 04:29:55;;;;;;;49.15;21.27;;;5.40;73.20;;;;;;5053837;28;20025;-69
2020/12/13 04:32:21;;;;;;;46.83;23.10;;;5.30;72.80;;;;;;5053255;28;20082;-69
2020/12/13 04:34:48;;;;;;;60.92;23.98;;;5.30;73.00;;;;;;5053216;28;20021;-69
2020/12/13 04:37:14;;;;;;;64.65;24.60;;;5.30;73.20;;;;;;5053228;28;20021;-71
2020/12/13 04:39:39;;;;;;;63.83;25.17;;;5.30;73.20;;;;;;5052853;28;20025;-70
2020/12/13 04:42:05;;;;;;;62.78;25.00;;;5.30;73.30;;;;;;5053271;28;20040;-69
2020/12/13 04:44:32;;;;;;;57.47;25.77;;;5.30;73.40;;;;;;5053388;28;20028;-70
2020/12/13 04:47:06;;;;;;;69.65;25.55;;;5.40;73.50;;;;;;5052778;28;20391;-68
2020/12/13 04:49:33;;;;;;;66.68;25.90;;;5.40;73.40;;;;;;5053022;28;20025;-69
2020/12/13 04:52:00;;;;;;;62.80;26.40;;;5.40;73.40;;;;;;5053071;28;20372;-69
2020/12/13 04:54:28;;;;;;;62.67;26.35;;;5.40;73.50;;;;;;5053152;28;20107;-68
2020/12/13 04:56:57;;;;;;;61.55;25.92;;;5.40;73.50;;;;;;5053111;28;20106;-68
2020/12/13 04:59:24;;;;;;;73.88;27.58;;;5.40;73.50;;;;;;5053374;28;20374;-69
2020/12/13 05:01:49;;;;;;;71.72;27.75;;;5.40;73.50;;;;;;5052958;28;20040;-70
2020/12/13 05:04:16;;;;;;;69.60;28.65;;;5.40;73.60;;;;;;5051809;28;20025;-70
2020/12/13 05:06:43;;;;;;;70.13;28.08;;;5.40;73.50;;;;;;5053530;28;20025;-69
2020/12/13 05:09:11;;;;;;;68.70;29.42;;;5.50;73.50;;;;;;5052921;28;20092;-70
2020/12/13 05:11:43;;;;;;;78.57;27.63;;;5.50;73.40;;;;;;5053604;28;20057;-69
2020/12/13 05:14:10;;;;;;;74.78;26.40;;;5.50;73.40;;;;;;5052950;28;20021;-69
2020/12/13 05:16:35;;;;;;;65.00;26.98;;;5.50;73.30;;;;;;5052699;28;20017;-69
2020/12/13 05:19:03;;;;;;;71.47;27.40;;;5.50;73.00;;;;;;5053190;28;20509;-69
2020/12/13 05:21:30;;;;;;;64.90;26.38;;;5.50;73.30;;;;;;5053133;28;20025;-70
2020/12/13 05:23:56;;;;;;;72.35;28.63;;;5.50;73.30;;;;;;5052931;28;20025;-69
2020/12/13 05:26:23;;;;;;;68.07;28.10;;;5.50;73.20;;;;;;5053063;28;20025;-70
2020/12/13 05:28:53;;;;;;;61.58;29.33;;;5.50;73.10;;;;;;5052057;28;20411;-70
2020/12/13 05:31:23;;;;;;;67.68;27.13;;;5.40;73.00;;;;;;5055626;28;20345;-69
2020/12/13 05:33:52;;;;;;;69.80;28.55;;;5.40;73.00;;;;;;5056622;28;20025;-69
2020/12/13 05:36:18;;;;;;;67.20;28.15;;;5.40;73.10;;;;;;5057109;28;20025;-69
2020/12/13 05:38:45;;;;;;;80.40;28.40;;;5.40;72.90;;;;;;5056507;28;20059;-70
2020/12/13 05:41:13;;;;;;;72.18;29.35;;;5.30;73.00;;;;;;5056360;28;20550;-69
2020/12/13 05:54:03;;;;;;;63.38;27.08;;;5.30;73.40;;;;;;5056111;28;20021;-69
2020/12/13 05:56:29;;;;;;;67.68;29.08;;;5.30;73.40;;;;;;5055963;28;20048;-69
2020/12/13 05:58:58;;;;;;;69.15;27.35;;;5.30;73.40;;;;;;5056501;28;20108;-70
2020/12/13 06:01:25;;;;;;;79.45;30.00;;;5.30;73.40;;;;;;5056131;28;20028;-71
2020/12/13 06:03:54;;;;;;;70.15;28.58;;;5.30;73.40;;;;;;5055856;28;20035;-70
2020/12/13 06:06:23;;;;;;;65.55;29.58;;;5.30;73.50;;;;;;5056371;28;20353;-70
2020/12/13 06:09:04;;;;;;;74.95;27.60;;;5.30;73.40;;;;;;5056222;28;20021;-70
2020/12/13 06:11:34;;;;;;;65.35;27.02;;;5.40;73.50;;;;;;5055121;28;20033;-69
2020/12/13 06:14:07;;;;;;;63.00;26.80;;;5.40;73.50;;;;;;5055985;28;20035;-70
2020/12/13 06:16:33;;;;;;;65.65;27.30;;;5.40;73.40;;;;;;5055613;28;20021;-70
2020/12/13 06:18:59;;;;;;;64.95;28.38;;;5.30;73.40;;;;;;5055986;28;20033;-69
2020/12/13 06:21:25;;;;;;;61.97;28.17;;;5.30;73.30;;;;;;5055812;28;20044;-69
2020/12/13 06:23:54;;;;;;;66.78;27.08;;;5.30;73.30;;;;;;5055994;28;20356;-69
2020/12/13 06:26:20;;;;;;;65.63;27.60;;;5.30;73.50;;;;;;5055880;28;20017;-70
2020/12/13 06:28:46;;;;;;;59.22;28.13;;;5.30;73.50;;;;;;5055377;28;20027;-70
2020/12/13 06:31:20;;;;;;;61.92;27.77;;;5.30;73.50;;;;;;5055949;28;20501;-70
2020/12/13 06:33:46;;;;;;;58.33;27.88;;;5.30;73.70;;;;;;5055473;28;20301;-69
2020/12/13 06:36:13;;;;;;;59.60;27.73;;;5.30;73.60;;;;;;5055713;28;20029;-69
2020/12/13 06:38:40;;;;;;;62.80;27.45;;;5.30;73.60;;;;;;5055642;28;20090;-70
2020/12/13 06:41:12;;;;;;;56.92;26.67;;;5.30;73.60;;;;;;5055547;28;20057;-70
2020/12/13 06:43:40;;;;;;;60.42;26.95;;;5.30;73.70;;;;;;5054839;28;20476;-70
2020/12/13 06:46:16;;;;;;;61.95;28.23;;;5.40;73.70;;;;;;5055157;28;20115;-71
2020/12/13 06:48:43;;;;;;;62.08;26.90;;;5.40;73.80;;;;;;5055174;28;20052;-69
2020/12/13 06:51:09;;;;;;;58.22;25.83;;;5.40;73.50;;;;;;5054018;28;20033;-71
2020/12/13 06:53:36;;;;;;;60.35;28.23;;;5.30;73.30;;;;;;5055107;28;20163;-69
2020/12/13 06:56:09;;;;;;;64.13;27.15;;;5.30;73.50;;;;;;5055101;28;20017;-70
2020/12/13 06:58:46;;;;;;;60.35;26.45;;;5.30;73.50;;;;;;5055047;28;20485;-69
2020/12/13 07:01:20;;;;;;;56.17;25.63;;;5.30;73.30;;;;;;5054842;28;20024;-71
2020/12/13 07:03:49;;;;;;;56.85;25.30;;;5.30;74.20;;;;;;5055418;28;20044;-69
2020/12/13 07:06:26;;;;;;;57.40;24.92;;;5.30;73.70;;;;;;5055123;28;20084;-69
2020/12/13 07:08:59;;;;;;;65.88;27.73;;;5.40;73.70;;;;;;5054674;28;20032;-69
2020/12/13 07:11:27;;;;;;;69.15;27.17;;;5.40;73.60;;;;;;5055482;28;20064;-69
2020/12/13 07:14:09;;;;;;;58.28;26.40;;;5.40;73.60;;;;;;5054783;28;20155;-68
2020/12/13 07:16:37;;;;;;;65.60;26.80;;;5.40;73.50;;;;;;5054843;28;20023;-69
2020/12/13 07:19:14;;;;;;;63.42;26.92;;;5.40;73.50;;;;;;5054915;28;20533;-70
2020/12/13 07:21:41;;;;;;;58.55;27.67;;;5.40;73.50;;;;;;5055111;28;20033;-70
2020/12/13 07:24:08;;;;;;;64.32;27.77;;;5.40;73.60;;;;;;5054669;28;20025;-70
2020/12/13 07:26:35;;;;;;;69.50;28.48;;;5.40;73.50;;;;;;5054689;28;20025;-70
2020/12/13 07:29:03;;;;;;;60.05;26.80;;;5.50;73.50;;;;;;5054535;28;20028;-69
2020/12/13 07:31:37;;;;;;;55.03;25.40;;;5.40;73.30;;;;;;5054454;28;20120;-69
2020/12/13 07:34:06;;;;;;;64.13;26.85;;;5.50;73.50;;;;;;5054591;28;20090;-70
2020/12/13 07:36:33;;;;;;;56.95;25.95;;;5.50;73.40;;;;;;5054373;28;20047;-69
2020/12/13 07:39:06;;;;;;;63.95;27.77;;;5.50;73.40;;;;;;5053539;28;20381;-68
2020/12/13 07:41:32;;;;;;;58.78;26.90;;;5.50;73.30;;;;;;5054191;28;20064;-70
2020/12/13 07:44:06;;;;;;;61.38;25.98;;;5.50;73.30;;;;;;5054291;28;20051;-71
2020/12/13 07:46:34;;;;;;;54.97;25.45;;;5.50;74.00;;;;;;5054005;28;20063;-70
2020/12/13 07:49:19;;;;;;;53.05;25.60;;;5.50;73.10;;;;;;5054626;28;20029;-69
2020/12/13 07:51:47;;;;;;;58.05;25.33;;;5.50;73.30;;;;;;5054716;28;20025;-70
2020/12/13 07:54:17;;;;;;;53.22;24.67;;;5.50;73.70;;;;;;5053162;28;20017;-70
2020/12/13 07:56:44;;;;;;;53.58;23.65;;;5.50;73.10;;;;;;5054034;28;20379;-69
2020/12/13 07:59:13;;;;;;;53.60;24.95;;;5.60;73.00;;;;;;5053848;28;20027;-70
2020/12/13 08:01:41;;;;;;;55.28;24.80;;;5.60;73.10;;;;;;5053628;28;20123;-70
2020/12/13 08:04:08;;;;;;;54.28;25.05;;;5.60;72.90;;;;;;5054033;28;20075;-69
2020/12/13 08:06:34;;;;;;;52.22;25.67;;;5.60;72.80;;;;;;5053553;28;20384;-69
2020/12/13 08:09:05;;;;;;;49.83;24.45;;;5.60;72.90;;;;;;5053839;28;20183;-69
2020/12/13 08:11:32;;;;;;;50.10;23.90;;;5.60;72.90;;;;;;5054274;28;20154;-70
2020/12/13 08:13:57;;;;;;;52.45;24.05;;;5.60;73.00;;;;;;5053946;28;20348;-69
2020/12/13 08:16:27;;;;;;;45.80;22.08;;;5.60;72.80;;;;;;5053097;28;20021;-70
2020/12/13 08:18:55;;;;;;;49.88;23.05;;;5.60;72.70;;;;;;5053560;28;20032;-70
2020/12/13 08:21:30;;;;;;;48.05;22.48;;;5.60;72.60;;;;;;5053437;28;20021;-70
2020/12/13 08:23:57;;;;;;;;;;;5.70;72.50;;;;;;5054110;28;20352;-70
2020/12/13 08:26:23;;;;;;;46.15;22.33;;;5.70;72.60;;;;;;5052659;28;19908;-70
2020/12/13 08:28:51;;;;;;;53.90;25.38;;;5.70;72.50;;;;;;5053462;28;20039;-70
2020/12/13 08:31:24;;;;;;;52.67;23.75;;;5.70;72.30;;;;;;5053615;28;20088;-70
2020/12/13 08:34:02;;;;;;;48.58;21.95;;;5.70;72.60;;;;;;5053358;28;20048;-70
2020/12/13 08:36:29;;;;;;;52.72;23.40;;;5.70;72.50;;;;;;5053755;28;20388;-70
2020/12/13 08:39:08;;;;;;;53.30;23.98;;;5.70;72.40;;;;;;5053583;28;20095;-69
2020/12/13 08:41:34;;;;;;;57.28;23.85;;;5.70;72.30;;;;;;5053214;28;20032;-70
2020/12/13 08:44:00;;;;;;;49.47;23.90;;;5.70;72.40;;;;;;5053286;28;20017;-71
2020/12/13 08:46:33;;;;;;;52.10;23.17;;;5.70;72.60;;;;;;5053538;28;20049;-69
2020/12/13 08:49:00;;;;;;;51.55;22.98;;;5.80;72.50;;;;;;5053167;28;20033;-70
2020/12/13 08:51:28;;;;;;;50.70;24.45;;;5.80;72.20;;;;;;5053674;28;20025;-68
2020/12/13 08:54:03;;;;;;;46.95;22.42;;;5.90;72.00;;;;;;5053947;28;20024;-68
2020/12/13 08:56:33;;;;;;;;;;;5.90;72.00;;;;;;5052641;28;20400;-69
2020/12/13 08:59:00;;;;;;;41.97;19.95;;;5.90;71.90;;;;;;5053403;28;20360;-69
2020/12/13 09:01:33;;;;;;;44.60;21.40;;;5.80;71.60;;;;;;5053381;28;20116;-70
2020/12/13 09:04:03;;;;;;;42.20;19.83;;;5.80;71.70;;;;;;5053811;28;20024;-69
2020/12/13 09:06:29;;;;;;;38.30;18.92;;;5.80;71.70;;;;;;5056034;28;20029;-71
2020/12/13 09:09:10;;;;;;;41.97;18.13;;;5.80;71.80;;;;;;5056774;28;20032;-70
2020/12/13 09:11:36;;;;;;;35.40;17.52;;;5.80;71.80;;;;;;5057544;28;20166;-69
2020/12/13 09:14:04;;;;;;;36.88;18.65;;;5.80;71.40;;;;;;5057099;28;20021;-70
2020/12/13 09:16:33;;;;;;;33.92;16.55;;;5.80;71.70;;;;;;5057280;28;20032;-71
2020/12/13 09:19:09;;;;;;;40.63;17.13;;;5.80;71.60;;;;;;5056066;28;20455;-71
2020/12/13 09:21:48;;;;;;;32.15;16.85;;;5.80;71.70;;;;;;5055564;28;20491;-71
2020/12/13 09:24:15;;;;;;;35.53;16.73;;;5.80;71.50;;;;;;5055525;28;20047;-70
2020/12/13 09:26:55;;;;;;;33.40;16.05;;;5.90;71.50;;;;;;5057085;28;20044;-69
2020/12/13 09:29:20;;;;;;;30.83;16.73;;;5.90;71.30;;;;;;5056376;28;20070;-70
2020/12/13 09:31:46;;;;;;;32.58;15.65;;;5.90;71.20;;;;;;5056892;28;20025;-69
2020/12/13 09:34:12;;;;;;;27.52;15.00;;;5.90;71.20;;;;;;5056404;28;20034;-71
2020/12/13 09:36:37;;;;;;;29.55;14.82;;;5.90;70.90;;;;;;5056714;28;20021;-70
2020/12/13 09:39:03;;;;;;;29.83;15.02;;;5.80;70.80;;;;;;5056562;28;20025;-70
2020/12/13 09:41:29;;;;;;;29.48;14.88;;;5.80;70.90;;;;;;5056433;28;20115;-70
2020/12/13 09:43:54;;;;;;;31.40;16.95;;;5.80;70.90;;;;;;5056279;28;20326;-70
2020/12/13 09:46:20;;;;;;;32.47;15.05;;;5.80;71.00;;;;;;5056686;28;20157;-70
2020/12/13 09:48:50;;;;;;;32.78;16.48;;;5.70;71.10;;;;;;5056567;28;20032;-70
2020/12/13 09:51:18;;;;;;;31.98;16.23;;;5.80;71.10;;;;;;5056085;28;20067;-70
2020/12/13 09:53:44;;;;;;;29.88;15.30;;;5.70;70.90;;;;;;5056018;28;20025;-70
2020/12/13 09:56:14;;;;;;;29.88;16.33;;;5.70;71.00;;;;;;5055925;28;20029;-71
2020/12/13 09:58:40;;;;;;;28.85;15.55;;;5.70;71.20;;;;;;5056158;28;20017;-71
2020/12/13 10:01:06;;;;;;;29.17;14.80;;;5.70;71.20;;;;;;5055841;28;20419;-71
2020/12/13 10:03:31;;;;;;;39.80;16.77;;;5.70;71.00;;;;;;5056402;28;20028;-70
2020/12/13 10:09:01;;;;;;;30.23;15.75;;;5.70;71.00;;;;;;5055799;28;20372;-70
2020/12/13 10:11:30;;;;;;;33.33;17.23;;;5.70;71.00;;;;;;5055993;28;20024;-70
2020/12/13 10:13:57;;;;;;;34.47;17.08;;;5.70;71.00;;;;;;5056120;28;20040;-70
2020/12/13 10:16:23;;;;;;;35.58;17.77;;;5.70;71.10;;;;;;5055489;28;20024;-72
2020/12/13 10:18:49;;;;;;;33.78;17.38;;;5.70;71.00;;;;;;5054825;28;20095;-72
2020/12/13 10:21:25;;;;;;;32.42;17.40;;;5.60;71.20;;;;;;5054461;28;20061;-71
2020/12/13 10:23:52;;;;;;;34.80;18.60;;;5.60;71.20;;;;;;5056016;28;20044;-71
2020/12/13 10:26:21;;;;;;;35.55;17.33;;;5.70;71.20;;;;;;5055667;28;20020;-71
2020/12/13 10:28:47;;;;;;;40.35;18.00;;;5.70;71.10;;;;;;5055541;28;20047;-71
2020/12/13 10:31:14;;;;;;;31.33;17.65;;;5.70;71.10;;;;;;5055216;28;20500;-72
2020/12/13 10:33:40;;;;;;;38.05;18.60;;;5.70;71.20;;;;;;5055545;28;20095;-70
2020/12/13 10:36:08;;;;;;;34.75;18.30;;;5.70;71.20;;;;;;5055425;28;20453;-71
2020/12/13 10:38:34;;;;;;;33.70;19.63;;;5.70;71.20;;;;;;5055633;28;20071;-71
2020/12/13 10:41:00;;;;;;;36.92;18.65;;;5.80;71.20;;;;;;5055715;28;20083;-72
2020/12/13 10:43:25;;;;;;;40.83;18.52;;;5.80;71.10;;;;;;5054551;28;20387;-72
2020/12/13 10:45:51;;;;;;;31.58;17.50;;;5.80;71.00;;;;;;5055040;28;20043;-72
2020/12/13 10:48:19;;;;;;;36.97;18.85;;;5.80;71.00;;;;;;5054678;28;20041;-69
2020/12/13 10:50:44;;;;;;;37.83;19.00;;;5.80;70.90;;;;;;5055457;28;20060;-71
2020/12/13 10:53:10;;;;;;;37.47;18.70;;;5.80;70.90;;;;;;5055228;28;20052;-71
2020/12/13 10:55:37;;;;;;;39.50;19.60;;;5.80;70.90;;;;;;5053966;28;20159;-71
2020/12/13 10:58:02;;;;;;;36.15;17.88;;;5.80;70.90;;;;;;5055038;28;20121;-71
2020/12/13 11:00:28;;;;;;;36.92;19.88;;;5.80;70.80;;;;;;5054723;28;20112;-71
2020/12/13 11:02:54;;;;;;;35.28;18.13;;;5.70;70.70;;;;;;5055078;28;20503;-70
2020/12/13 11:05:20;;;;;;;37.00;19.75;;;5.70;70.60;;;;;;5054924;28;20025;-72
2020/12/13 11:07:45;;;;;;;35.38;17.73;;;5.70;70.60;;;;;;5055381;28;20055;-72
2020/12/13 11:10:11;;;;;;;38.35;19.52;;;5.70;70.60;;;;;;5055257;28;20445;-72
2020/12/13 11:12:37;;;;;;;40.25;20.55;;;5.60;70.60;;;;;;5053489;28;20048;-71
2020/12/13 11:15:04;;;;;;;34.33;18.20;;;5.60;70.80;;;;;;5054600;28;20071;-72
2020/12/13 11:17:32;;;;;;;39.22;19.48;;;5.60;71.00;;;;;;5053677;28;20112;-71
2020/12/13 11:19:57;;;;;;;32.78;19.25;;;5.60;71.00;;;;;;5054647;28;20017;-69
2020/12/13 11:22:23;;;;;;;38.65;21.27;;;5.60;70.90;;;;;;5054765;28;20024;-69
2020/12/13 11:24:49;;;;;;;36.17;21.63;;;5.50;71.10;;;;;;5054720;28;20020;-70
2020/12/13 11:27:15;;;;;;;39.33;20.20;;;5.50;71.20;;;;;;5053558;28;20410;-70
2020/12/13 11:29:41;;;;;;;40.97;21.02;;;5.60;71.20;;;;;;5053706;28;20048;-71
2020/12/13 11:32:06;;;;;;;47.50;19.50;;;5.50;71.10;;;;;;5054428;28;20445;-71
2020/12/13 11:34:32;;;;;;;38.47;19.20;;;5.50;71.20;;;;;;5054399;28;20024;-72
2020/12/13 11:37:02;;;;;;;37.38;18.75;;;5.50;71.10;;;;;;5054856;28;20021;-70
2020/12/13 11:39:27;;;;;;;38.85;19.98;;;5.50;71.50;;;;;;5054022;28;20372;-70
2020/12/13 11:41:55;;;;;;;39.42;19.17;;;5.60;71.40;;;;;;5054516;28;20024;-70
2020/12/13 11:44:21;;;;;;;37.13;20.13;;;5.60;71.30;;;;;;5054673;28;20025;-70
2020/12/13 11:46:47;;;;;;;34.70;19.25;;;5.60;71.20;;;;;;5052687;28;20021;-69
2020/12/13 11:49:13;;;;;;;39.30;19.38;;;5.70;71.20;;;;;;5054539;28;20024;-70
2020/12/13 11:51:43;;;;;;;38.17;20.35;;;5.60;71.20;;;;;;5054019;28;20025;-70
2020/12/13 11:54:08;;;;;;;33.67;18.50;;;5.70;71.30;;;;;;5053736;28;20070;-69
2020/12/13 11:56:34;;;;;;;37.00;18.50;;;5.70;71.40;;;;;;5053928;28;20376;-70
2020/12/13 11:59:00;;;;;;;37.20;18.80;;;5.70;71.20;;;;;;5052551;28;20059;-71
2020/12/13 12:01:25;;;;;;;36.95;19.05;;;5.60;71.30;;;;;;5054347;28;20025;-70
2020/12/13 12:03:51;;;;;;;42.60;20.13;;;5.70;71.40;;;;;;5053762;28;20123;-70
2020/12/13 12:06:17;;;;;;;32.83;19.30;;;5.70;71.40;;;;;;5054317;28;20028;-71
2020/12/13 12:08:43;;;;;;;36.50;19.33;;;5.70;71.40;;;;;;5052932;28;20021;-71
2020/12/13 12:11:09;;;;;;;36.63;18.13;;;5.70;71.20;;;;;;5053136;28;20031;-72
2020/12/13 12:13:35;;;;;;;36.22;19.45;;;5.70;71.00;;;;;;5053631;28;20017;-70
2020/12/13 12:16:01;;;;;;;38.13;20.45;;;5.70;71.10;;;;;;5054052;28;20036;-70
2020/12/13 12:18:26;;;;;;;37.25;19.23;;;5.60;71.10;;;;;;5054356;28;20476;-71
2020/12/13 12:20:53;;;;;;;35.58;19.30;;;5.60;70.90;;;;;;5053428;28;20135;-70
2020/12/13 12:23:19;;;;;;;33.30;18.70;;;5.50;71.10;;;;;;5053565;28;20025;-71
2020/12/13 12:25:51;;;;;;;37.45;18.05;;;5.50;71.10;;;;;;5053255;28;20017;-71
2020/12/13 12:28:17;;;;;;;36.90;18.80;;;5.50;71.30;;;;;;5053507;28;20099;-71
2020/12/13 12:30:44;;;;;;;38.17;19.40;;;5.50;71.20;;;;;;5053770;28;20021;-71
2020/12/13 12:33:09;;;;;;;41.22;19.27;;;5.40;71.30;;;;;;5053500;28;20021;-70
2020/12/13 12:35:35;;;;;;;34.33;18.63;;;5.40;71.40;;;;;;5052020;28;20079;-71
2020/12/13 12:38:01;;;;;;;40.60;19.52;;;5.40;71.60;;;;;;5052514;28;20023;-71
2020/12/13 12:40:26;;;;;;;36.45;18.23;;;5.40;71.50;;;;;;5052613;28;20448;-72
2020/12/13 12:42:53;;;;;;;31.38;17.20;;;5.40;71.40;;;;;;5052909;28;20021;-71
2020/12/13 12:45:19;;;;;;;33.63;17.52;;;5.40;71.60;;;;;;5053571;28;20025;-70
2020/12/13 12:47:45;;;;;;;33.92;16.38;;;5.40;71.80;;;;;;5053375;28;20021;-72
2020/12/13 12:50:10;;;;;;;29.83;16.33;;;5.40;71.80;;;;;;5052985;28;20025;-71
2020/12/13 12:52:36;;;;;;;31.50;16.25;;;5.40;71.60;;;;;;5053716;28;20017;-71
2020/12/13 12:55:03;;;;;;;34.47;16.95;;;5.40;71.50;;;;;;5052009;28;20024;-71